Windsor Airport
CYQG : now visible

Airfield :











YOU CAN JOIN US ON...

 
LOGIN :

Register | Disclaimer

   EN    FR    IT 

 









Legend :    VFR   Marginal VFR   IFR   Intensive IFR   Very Intensive IFR
Visi :
Ceiling :
>= 8 km
>= 3000ft
5 to 8 km
1000 to 3000 ft
1500m to 5 km
500 to 1000 ft
800 to 1500m
200 to 500 ft
< 800m
< 200 ft
Symbols :   Thunderstorms  Fog  Heavy snow  Heavy precipitations  Wind > 20 kt







- Airport Elevation : 622 ft
- IATA code : YQG


CYQG - Windsor

CURRENT METAR :
  • 181900Z AUTO 23014G19KT 9SM FEW036 31/23 A2990 RMK LTNG DIST W SLP122 DENSITY ALT 2600FT

EXPIRED METARs :
  • 181800Z AUTO 22009G16KT 200V270 9SM FEW033 31/23 A2992 RMK SLP129 DENSITY ALT 2500FT
  • 181700Z AUTO 21008G15KT 170V250 9SM CLR 30/23 A2994 RMK SLP135 DENSITY ALT 2400FT
  • 181600Z AUTO 21008KT 9SM CLR 29/21 A2995 RMK SLP139 DENSITY ALT 2200FT

TAF TAF CYQG
Valid from the 18 at 18:00 until the 19 at 18:00 UTC


181742Z 1818/1918 21012KT P6SM FEW050 BKN240
FM190900 23012KT P6SM SCT050
TEMPO 1909/1912 P6SM -SHRA BKN050
BECMG 1915/1917 24012G22KT RMK FCST BASED ON AUTO OBS. NXT FCST BY 190000Z
CZYZ FIR / North America



MET'MAP, your aeronautical weather chart ! - Copyright ORBIFLY December 2007 - Disclaimer

ORBIFLY MET'MAP TEAM :

Programming & Development : Alexandra Zaïnal
Concept & Development : Baudouin d'Aumeries
Co-Development & Prog : Marc-Olivier Méhu
Technical & hardware support : Manuel Goepfert

Contact : metmap@orbifly.com




SOURCES & CREDITS :

   NOAA       Earth
Advisory